Time;durP1;ratioP1;P1;durP2;ratioP2;P2;SDS_P1;SDS_P2;PMS_P1;PMS_P2;Temp;Humidity;BMP_temperature;BMP_pressure;BME280_temperature;BME280_humidity;BME280_pressure;Samples;Min_cycle;Max_cycle;Signal;HPM_P1;HPM_P2
2022/03/29 00:00:17;;;;;;;26.60;11.57;;;28.50;83.10;;;;;;5124981;28;20022;-48
2022/03/29 00:02:44;;;;;;;36.97;12.13;;;28.50;83.30;;;;;;5125072;28;20024;-53
2022/03/29 00:05:11;;;;;;;33.78;11.70;;;28.50;82.80;;;;;;5125091;28;20227;-48
2022/03/29 00:07:37;;;;;;;29.92;11.52;;;28.50;82.50;;;;;;5125205;28;20051;-54
2022/03/29 00:10:06;;;;;;;28.60;11.20;;;28.50;82.50;;;;;;5124755;28;20012;-50
2022/03/29 00:12:35;;;;;;;26.17;11.60;;;28.40;82.40;;;;;;5125108;28;20373;-47
2022/03/29 00:15:03;;;;;;;30.55;11.07;;;28.40;82.50;;;;;;5124852;28;20023;-55
2022/03/29 00:17:30;;;;;;;32.63;12.38;;;28.40;82.30;;;;;;5124284;28;20029;-54
2022/03/29 00:19:57;;;;;;;29.60;12.18;;;28.40;82.10;;;;;;5124717;28;20008;-47
2022/03/29 00:22:24;;;;;;;25.52;11.57;;;28.40;82.10;;;;;;5124898;28;20090;-46
2022/03/29 00:24:51;;;;;;;28.67;11.52;;;28.40;82.00;;;;;;5124184;28;20070;-51
2022/03/29 00:27:18;;;;;;;31.98;12.07;;;28.40;81.90;;;;;;5135988;27;20046;-48
2022/03/29 00:29:45;;;;;;;33.70;11.30;;;28.30;81.80;;;;;;5124937;28;20045;-52
2022/03/29 00:32:12;;;;;;;25.77;11.20;;;28.30;81.70;;;;;;5124899;28;20031;-48
2022/03/29 00:34:40;;;;;;;29.23;12.00;;;28.30;81.70;;;;;;5124897;28;20043;-48
2022/03/29 00:37:07;;;;;;;26.55;11.80;;;28.30;81.70;;;;;;5125048;28;20072;-47
2022/03/29 00:39:34;;;;;;;29.30;11.45;;;28.30;81.50;;;;;;5124470;28;20026;-50
2022/03/29 00:42:01;;;;;;;35.92;12.05;;;28.30;81.50;;;;;;5124356;28;20027;-54
2022/03/29 00:44:36;;;;;;;29.00;11.63;;;28.30;81.40;;;;;;5124603;28;20023;-56
2022/03/29 00:47:03;;;;;;;32.75;12.27;;;28.30;81.30;;;;;;5124651;28;20086;-53
2022/03/29 00:49:30;;;;;;;28.30;11.50;;;28.20;81.10;;;;;;5124529;28;20034;-48
2022/03/29 00:52:01;;;;;;;31.55;14.07;;;28.20;81.20;;;;;;5124460;28;20028;-50
2022/03/29 00:54:35;;;;;;;36.47;15.65;;;28.20;81.10;;;;;;5124623;28;20026;-46
2022/03/29 00:57:04;;;;;;;33.17;14.50;;;28.20;81.10;;;;;;5124266;28;20299;-47
2022/03/29 00:59:31;;;;;;;34.53;16.27;;;28.20;81.10;;;;;;5124036;28;20018;-49
2022/03/29 01:01:58;;;;;;;31.30;14.68;;;28.20;81.00;;;;;;5124387;28;20069;-51
2022/03/29 01:04:28;;;;;;;35.10;15.40;;;28.20;80.90;;;;;;5124355;28;20335;-50
2022/03/29 01:06:59;;;;;;;31.20;13.55;;;28.20;81.00;;;;;;5124131;28;20149;-56
2022/03/29 01:09:30;;;;;;;46.13;17.83;;;28.10;80.80;;;;;;5124202;28;20019;-49
2022/03/29 01:11:57;;;;;;;36.42;18.27;;;28.10;80.60;;;;;;5123779;28;20031;-49
2022/03/29 01:14:26;;;;;;;33.60;16.05;;;28.10;80.90;;;;;;5124177;28;20023;-54
2022/03/29 01:19:40;;;;;;;31.90;16.20;;;28.10;81.30;;;;;;5124210;28;20317;-48
2022/03/29 01:22:09;;;;;;;33.92;16.05;;;28.00;81.30;;;;;;5124044;28;20023;-47
2022/03/29 01:24:37;;;;;;;28.98;14.68;;;28.00;81.70;;;;;;5123855;28;20053;-47
2022/03/29 01:27:08;;;;;;;32.13;14.25;;;28.00;81.30;;;;;;5123724;28;20068;-45
2022/03/29 01:29:37;;;;;;;31.67;14.40;;;28.00;80.60;;;;;;5123972;28;20027;-46
2022/03/29 01:32:07;;;;;;;30.02;13.02;;;28.00;80.40;;;;;;5123959;28;20024;-45
2022/03/29 01:34:37;;;;;;;32.05;13.25;;;28.00;80.40;;;;;;5123869;28;20094;-46
2022/03/29 01:37:04;;;;;;;38.25;14.18;;;28.00;80.20;;;;;;5125358;28;20023;-45
2022/03/29 01:39:33;;;;;;;33.90;15.10;;;28.00;80.10;;;;;;5127729;28;20054;-50
2022/03/29 01:42:00;;;;;;;32.47;14.55;;;27.90;80.00;;;;;;5128241;27;20023;-53
2022/03/29 01:44:27;;;;;;;36.47;14.88;;;28.00;79.90;;;;;;5137582;27;20011;-49
2022/03/29 01:46:53;;;;;;;32.72;15.07;;;27.90;79.70;;;;;;5138636;27;20016;-51
2022/03/29 01:49:20;;;;;;;35.85;15.07;;;28.00;80.00;;;;;;5136451;27;20108;-49
2022/03/29 01:51:48;;;;;;;33.67;15.02;;;27.90;80.00;;;;;;5137550;27;20026;-48
2022/03/29 01:54:15;;;;;;;31.55;15.18;;;27.90;79.50;;;;;;5138364;27;20026;-52
2022/03/29 01:56:41;;;;;;;33.28;14.32;;;27.90;79.40;;;;;;5136588;27;20028;-47
2022/03/29 01:59:12;;;;;;;33.42;14.73;;;27.90;79.00;;;;;;5137133;27;20074;-49
2022/03/29 02:01:44;;;;;;;29.85;14.38;;;27.90;78.60;;;;;;5138357;27;20078;-47
2022/03/29 02:04:12;;;;;;;32.75;14.55;;;27.90;78.50;;;;;;5137917;27;20056;-47
2022/03/29 02:06:39;;;;;;;35.38;14.80;;;27.90;78.30;;;;;;5135967;27;20027;-53
2022/03/29 02:09:08;;;;;;;28.52;14.30;;;27.90;78.30;;;;;;5137402;27;20060;-54
2022/03/29 02:11:38;;;;;;;26.63;13.23;;;27.90;78.50;;;;;;5137848;27;20443;-49
2022/03/29 02:14:05;;;;;;;28.52;13.43;;;27.80;78.10;;;;;;5136728;27;20024;-52
2022/03/29 02:16:33;;;;;;;27.15;12.95;;;27.90;78.00;;;;;;5136470;27;20015;-46
2022/03/29 02:18:59;;;;;;;24.88;13.10;;;27.90;78.10;;;;;;5138179;27;20019;-46
2022/03/29 02:21:26;;;;;;;30.58;13.85;;;27.90;77.40;;;;;;5136568;27;20016;-48
2022/03/29 02:23:53;;;;;;;30.73;15.52;;;27.80;77.30;;;;;;5136104;27;20015;-51
2022/03/29 02:26:19;;;;;;;28.58;15.00;;;27.80;77.30;;;;;;5136425;27;20094;-53
2022/03/29 02:28:46;;;;;;;27.50;14.45;;;27.80;77.30;;;;;;5137283;27;20011;-48
2022/03/29 02:31:12;;;;;;;25.95;14.70;;;27.80;76.80;;;;;;5137492;27;20049;-52
2022/03/29 02:33:39;;;;;;;25.48;14.38;;;27.80;77.10;;;;;;5135629;27;20024;-52
2022/03/29 02:36:06;;;;;;;26.70;13.27;;;27.80;77.10;;;;;;5136905;27;20015;-49
2022/03/29 02:38:32;;;;;;;29.77;13.30;;;27.80;77.20;;;;;;5137472;27;20023;-55
2022/03/29 02:41:00;;;;;;;24.33;14.07;;;27.80;77.80;;;;;;5135355;27;20015;-49
2022/03/29 02:43:26;;;;;;;27.20;13.07;;;27.80;78.20;;;;;;5144879;27;20019;-54
2022/03/29 02:45:53;;;;;;;26.95;12.90;;;27.80;77.40;;;;;;5147123;27;20014;-57
2022/03/29 02:48:20;;;;;;;27.73;12.48;;;27.80;77.20;;;;;;5146708;27;20055;-54
2022/03/29 02:50:47;;;;;;;23.15;11.90;;;27.80;76.90;;;;;;5147273;27;20030;-53
2022/03/29 02:53:15;;;;;;;26.90;12.60;;;27.80;76.80;;;;;;5127131;27;20069;-55
2022/03/29 02:55:41;;;;;;;23.73;12.32;;;27.80;76.70;;;;;;5126295;28;20030;-55
2022/03/29 02:58:09;;;;;;;20.00;11.82;;;27.80;76.80;;;;;;5126670;28;20031;-57
2022/03/29 03:00:35;;;;;;;23.30;12.32;;;27.80;76.30;;;;;;5126427;28;20050;-57
2022/03/29 03:03:03;;;;;;;21.35;12.02;;;27.80;76.50;;;;;;5126569;28;20024;-54
2022/03/29 03:05:29;;;;;;;23.80;11.82;;;27.80;76.40;;;;;;5126251;28;20023;-52
2022/03/29 03:07:56;;;;;;;26.42;11.80;;;27.80;76.10;;;;;;5126433;28;20020;-56
2022/03/29 03:10:25;;;;;;;27.45;12.25;;;27.80;76.20;;;;;;5126075;28;20020;-53
2022/03/29 03:12:52;;;;;;;26.80;12.55;;;27.80;75.90;;;;;;5126449;28;20034;-55
2022/03/29 03:15:20;;;;;;;25.00;11.73;;;27.80;76.10;;;;;;5125847;28;20019;-54
2022/03/29 03:17:47;;;;;;;23.25;11.02;;;27.80;76.20;;;;;;5126203;28;20034;-54
2022/03/29 03:20:14;;;;;;;25.13;11.77;;;27.80;76.10;;;;;;5126190;28;20065;-55
2022/03/29 03:22:41;;;;;;;22.38;11.25;;;27.80;75.90;;;;;;5125971;28;20027;-54
2022/03/29 03:25:09;;;;;;;24.33;11.40;;;27.80;76.30;;;;;;5134077;27;20023;-53
2022/03/29 03:27:36;;;;;;;20.98;11.38;;;27.80;75.80;;;;;;5136516;27;20083;-59
2022/03/29 03:30:08;;;;;;;23.55;12.02;;;27.80;75.40;;;;;;5134668;27;20016;-55
2022/03/29 03:32:34;;;;;;;21.65;11.95;;;27.80;76.30;;;;;;5135045;27;20020;-52
2022/03/29 03:35:01;;;;;;;25.42;12.25;;;27.80;76.40;;;;;;5125633;28;20019;-53
2022/03/29 03:37:28;;;;;;;25.33;12.35;;;27.70;76.60;;;;;;5125627;28;20237;-55
2022/03/29 03:39:54;;;;;;;21.85;11.80;;;27.70;77.10;;;;;;5125500;28;20011;-56
2022/03/29 03:42:21;;;;;;;27.98;11.77;;;27.70;77.00;;;;;;5125265;28;20058;-59
2022/03/29 03:44:48;;;;;;;25.73;11.48;;;27.70;76.50;;;;;;5125333;28;20020;-56
2022/03/29 03:47:14;;;;;;;19.50;11.27;;;27.70;76.10;;;;;;5125474;28;20045;-52
2022/03/29 03:49:41;;;;;;;21.27;10.95;;;27.70;76.50;;;;;;5125409;28;20038;-54
2022/03/29 03:52:08;;;;;;;19.45;10.77;;;27.70;76.60;;;;;;5129177;27;20015;-57
2022/03/29 03:54:38;;;;;;;20.17;10.98;;;27.80;76.30;;;;;;5135068;27;20176;-53
2022/03/29 03:57:05;;;;;;;21.60;11.52;;;27.70;76.40;;;;;;5135957;27;20049;-55
2022/03/29 03:59:32;;;;;;;18.98;11.32;;;27.70;76.50;;;;;;5129731;27;20011;-54
2022/03/29 04:02:00;;;;;;;20.90;11.50;;;27.70;76.40;;;;;;5125442;28;20054;-54
2022/03/29 04:04:26;;;;;;;23.42;11.65;;;27.70;76.40;;;;;;5125160;28;20208;-54
2022/03/29 04:06:53;;;;;;;16.13;10.57;;;27.70;76.50;;;;;;5125080;28;20045;-56
2022/03/29 04:09:19;;;;;;;23.92;11.23;;;27.70;76.70;;;;;;5130980;27;20011;-52
2022/03/29 04:11:46;;;;;;;18.10;11.02;;;27.60;76.40;;;;;;5145196;27;20027;-54
2022/03/29 04:14:13;;;;;;;17.13;10.27;;;27.70;76.40;;;;;;5145365;27;20015;-53
2022/03/29 04:16:40;;;;;;;18.85;11.02;;;27.70;76.40;;;;;;5145573;27;20027;-59
2022/03/29 04:19:07;;;;;;;19.30;10.32;;;27.60;76.60;;;;;;5145294;27;20019;-56
2022/03/29 04:21:34;;;;;;;24.75;11.73;;;27.60;76.70;;;;;;5145576;27;20042;-53
2022/03/29 04:24:00;;;;;;;20.33;10.43;;;27.60;77.00;;;;;;5145490;27;20206;-52
2022/03/29 04:26:29;;;;;;;19.02;10.80;;;27.60;76.30;;;;;;5145163;27;20292;-57
2022/03/29 04:28:56;;;;;;;16.75;10.23;;;27.60;76.70;;;;;;5145116;27;20023;-57
2022/03/29 04:31:23;;;;;;;19.48;10.60;;;27.60;76.90;;;;;;5145355;27;20233;-53
2022/03/29 04:33:49;;;;;;;17.80;10.63;;;27.60;77.20;;;;;;5144854;27;20064;-56
2022/03/29 04:36:16;;;;;;;17.17;10.80;;;27.60;76.90;;;;;;5144940;27;20015;-58
2022/03/29 04:38:43;;;;;;;22.05;13.57;;;27.60;77.20;;;;;;5144135;27;20025;-54
2022/03/29 04:41:10;;;;;;;24.38;16.73;;;27.60;77.10;;;;;;5145124;27;20027;-54
2022/03/29 04:43:37;;;;;;;42.20;35.50;;;27.60;77.00;;;;;;5145449;27;20188;-57
2022/03/29 04:46:04;;;;;;;27.02;18.80;;;27.60;76.10;;;;;;5145195;27;20211;-52
2022/03/29 04:48:30;;;;;;;25.83;15.82;;;27.50;75.50;;;;;;5145072;27;20048;-56
2022/03/29 04:50:57;;;;;;;20.67;13.80;;;27.50;76.40;;;;;;5145179;27;20044;-52
2022/03/29 04:53:24;;;;;;;20.88;13.23;;;27.50;76.80;;;;;;5145553;28;20027;-53
2022/03/29 04:55:50;;;;;;;25.25;14.18;;;27.60;77.50;;;;;;5145087;28;20019;-53
2022/03/29 04:58:17;;;;;;;21.00;14.35;;;27.50;76.90;;;;;;5145124;28;20031;-52
2022/03/29 05:00:44;;;;;;;24.67;14.10;;;27.50;76.80;;;;;;5144995;28;20015;-56
2022/03/29 05:03:10;;;;;;;24.20;14.75;;;27.50;77.10;;;;;;5145441;28;20063;-53
2022/03/29 05:05:37;;;;;;;25.88;13.63;;;27.50;77.40;;;;;;5144790;28;20035;-56
2022/03/29 05:08:04;;;;;;;22.77;13.15;;;27.50;77.40;;;;;;5145304;28;20054;-53
2022/03/29 05:10:30;;;;;;;23.85;12.90;;;27.50;77.10;;;;;;5145362;27;20027;-52
2022/03/29 05:12:57;;;;;;;23.85;13.68;;;27.50;76.90;;;;;;5149348;27;20086;-51
2022/03/29 05:15:24;;;;;;;24.77;11.52;;;27.50;76.80;;;;;;5149213;27;20033;-53
2022/03/29 05:17:51;;;;;;;23.20;12.25;;;27.50;77.10;;;;;;5149142;27;20031;-52
2022/03/29 05:20:18;;;;;;;27.77;13.25;;;27.50;76.90;;;;;;5149122;27;20049;-52
2022/03/29 05:22:52;;;;;;;19.73;12.98;;;27.50;77.20;;;;;;5148841;27;20027;-54
2022/03/29 05:25:21;;;;;;;21.70;12.18;;;27.50;76.70;;;;;;5148780;27;20375;-51
2022/03/29 05:27:49;;;;;;;21.92;11.50;;;27.50;76.90;;;;;;5148943;27;20031;-54
2022/03/29 05:30:16;;;;;;;22.30;12.38;;;27.50;77.20;;;;;;5148830;27;20015;-56
2022/03/29 05:32:43;;;;;;;22.95;11.70;;;27.40;76.50;;;;;;5149072;27;20027;-54
2022/03/29 05:35:11;;;;;;;21.88;10.73;;;27.40;76.80;;;;;;5148509;27;20027;-52
2022/03/29 05:37:40;;;;;;;24.40;11.52;;;27.40;76.50;;;;;;5148651;27;20245;-54
2022/03/29 05:40:08;;;;;;;19.85;11.45;;;27.40;76.50;;;;;;5148584;27;20059;-52
2022/03/29 05:42:42;;;;;;;22.42;11.23;;;27.40;76.60;;;;;;5148586;27;20023;-52
2022/03/29 05:45:11;;;;;;;16.95;10.27;;;27.40;75.90;;;;;;5148497;27;20330;-53
2022/03/29 05:50:24;;;;;;;17.67;10.38;;;27.40;76.20;;;;;;5140197;27;20070;-52
2022/03/29 05:52:50;;;;;;;20.58;10.40;;;27.40;75.70;;;;;;5128044;28;20046;-57
2022/03/29 05:55:17;;;;;;;19.10;10.40;;;27.40;75.60;;;;;;5127581;28;20079;-55
2022/03/29 05:57:44;;;;;;;18.55;9.85;;;27.40;75.90;;;;;;5127871;28;20020;-53
2022/03/29 06:00:12;;;;;;;16.58;9.60;;;27.40;75.60;;;;;;5127566;28;20016;-53
2022/03/29 06:02:39;;;;;;;20.10;9.93;;;27.40;75.40;;;;;;5127629;28;20031;-53
2022/03/29 06:05:07;;;;;;;16.95;8.77;;;27.40;75.10;;;;;;5127506;28;20207;-53
2022/03/29 06:07:34;;;;;;;20.40;10.02;;;27.40;75.20;;;;;;5127685;28;20029;-57
2022/03/29 06:10:00;;;;;;;16.13;9.57;;;27.30;75.10;;;;;;5127290;28;20016;-56
2022/03/29 06:12:27;;;;;;;16.63;9.40;;;27.40;74.80;;;;;;5127539;28;20034;-54
2022/03/29 06:14:54;;;;;;;18.98;9.85;;;27.30;74.90;;;;;;5127305;28;20012;-54
2022/03/29 06:17:20;;;;;;;15.02;8.80;;;27.40;75.00;;;;;;5127312;28;20020;-56
2022/03/29 06:19:47;;;;;;;15.88;8.90;;;27.40;74.60;;;;;;5127153;28;20020;-56
2022/03/29 06:22:13;;;;;;;16.05;9.13;;;27.30;74.90;;;;;;5126482;28;20207;-52
2022/03/29 06:24:40;;;;;;;19.38;9.30;;;27.30;74.70;;;;;;5126994;28;20193;-57
2022/03/29 06:27:07;;;;;;;23.85;10.43;;;27.30;74.50;;;;;;5127258;28;20303;-59
2022/03/29 06:29:37;;;;;;;15.65;10.13;;;27.30;74.60;;;;;;5127013;28;20019;-50
2022/03/29 06:32:05;;;;;;;16.13;8.77;;;27.30;74.70;;;;;;5126957;28;20024;-54
2022/03/29 06:34:31;;;;;;;22.48;9.52;;;27.30;74.60;;;;;;5127036;28;20068;-55
2022/03/29 06:36:59;;;;;;;19.75;9.95;;;27.40;74.50;;;;;;5126892;28;20098;-54
2022/03/29 06:39:26;;;;;;;19.83;9.40;;;27.40;74.60;;;;;;5126466;28;20028;-52
2022/03/29 06:41:55;;;;;;;15.57;9.32;;;27.40;74.30;;;;;;5126822;28;20090;-51
2022/03/29 06:44:22;;;;;;;17.55;9.18;;;27.30;74.30;;;;;;5126674;28;20027;-53
2022/03/29 06:46:49;;;;;;;17.52;8.98;;;27.30;74.10;;;;;;5126648;28;20308;-55
2022/03/29 06:49:16;;;;;;;18.38;8.68;;;27.30;74.60;;;;;;5126438;28;20066;-52
2022/03/29 06:51:44;;;;;;;18.00;8.95;;;27.30;74.60;;;;;;5126648;28;20047;-53
2022/03/29 06:54:11;;;;;;;18.98;9.35;;;27.30;74.70;;;;;;5126647;28;20082;-57
2022/03/29 06:56:38;;;;;;;19.00;9.73;;;27.30;75.00;;;;;;5126514;28;20039;-56
2022/03/29 06:59:04;;;;;;;17.00;10.15;;;27.30;75.60;;;;;;5128831;27;20069;-55
2022/03/29 07:01:31;;;;;;;20.35;10.05;;;27.30;75.40;;;;;;5135718;27;20085;-51
2022/03/29 07:03:59;;;;;;;19.60;10.38;;;27.30;75.40;;;;;;5126380;28;20060;-51
2022/03/29 07:06:32;;;;;;;22.52;11.77;;;27.30;75.10;;;;;;5126199;28;20024;-54
2022/03/29 07:11:45;;;;;;;24.30;12.48;;;27.30;75.00;;;;;;5126314;28;20099;-56
2022/03/29 07:14:13;;;;;;;23.10;12.65;;;27.30;75.10;;;;;;5126244;28;20067;-53
2022/03/29 07:16:41;;;;;;;23.42;12.25;;;27.30;75.10;;;;;;5126134;28;20039;-52
2022/03/29 07:19:10;;;;;;;26.13;13.90;;;27.30;75.10;;;;;;5125985;28;20023;-55
2022/03/29 07:21:39;;;;;;;20.42;12.95;;;27.30;75.10;;;;;;5125941;28;20064;-53
2022/03/29 07:24:09;;;;;;;21.00;12.80;;;27.30;75.40;;;;;;5125909;28;20053;-55
2022/03/29 07:26:37;;;;;;;19.50;12.30;;;27.20;75.40;;;;;;5125812;28;20047;-55
2022/03/29 07:29:04;;;;;;;21.00;12.02;;;27.20;75.40;;;;;;5125834;28;20035;-54
2022/03/29 07:31:32;;;;;;;25.52;12.55;;;27.20;75.40;;;;;;5125769;28;20023;-54
2022/03/29 07:33:59;;;;;;;25.02;12.73;;;27.20;75.20;;;;;;5125640;28;20203;-57
2022/03/29 07:36:25;;;;;;;19.65;11.38;;;27.20;75.20;;;;;;5125711;28;20027;-54
2022/03/29 07:38:52;;;;;;;19.67;12.38;;;27.20;75.50;;;;;;5125634;28;20303;-53
2022/03/29 07:41:19;;;;;;;23.83;12.57;;;27.20;75.40;;;;;;5125428;28;20026;-57
2022/03/29 07:43:46;;;;;;;24.25;12.45;;;27.20;75.40;;;;;;5125507;28;20090;-52
2022/03/29 07:46:13;;;;;;;23.73;12.32;;;27.20;75.50;;;;;;5125432;28;20295;-58
2022/03/29 07:48:40;;;;;;;22.42;12.55;;;27.20;75.30;;;;;;5125360;28;20044;-56
2022/03/29 07:51:06;;;;;;;20.25;12.15;;;27.20;75.60;;;;;;5125674;28;20023;-52
2022/03/29 07:53:33;;;;;;;19.60;11.63;;;27.20;75.70;;;;;;5125291;28;20023;-55
2022/03/29 07:56:00;;;;;;;20.92;12.63;;;27.10;75.70;;;;;;5125405;28;20023;-55
2022/03/29 07:58:26;;;;;;;19.92;11.50;;;27.10;75.70;;;;;;5125556;28;20020;-56
2022/03/29 08:00:53;;;;;;;20.35;11.43;;;27.10;75.40;;;;;;5125217;28;20023;-59
2022/03/29 08:03:21;;;;;;;23.90;12.45;;;27.10;75.60;;;;;;5125605;28;20019;-53
2022/03/29 08:05:49;;;;;;;24.58;12.13;;;27.10;75.60;;;;;;5125270;28;20015;-56
2022/03/29 08:08:16;;;;;;;24.58;11.95;;;27.10;75.60;;;;;;5125515;28;20035;-57
2022/03/29 08:10:45;;;;;;;23.90;12.82;;;27.10;75.50;;;;;;5124986;28;20020;-57
2022/03/29 08:13:12;;;;;;;21.67;11.98;;;27.10;75.80;;;;;;5125284;28;20055;-57
2022/03/29 08:15:40;;;;;;;19.02;11.57;;;27.10;75.80;;;;;;5124924;28;20068;-57
2022/03/29 08:18:08;;;;;;;23.77;12.20;;;27.10;75.80;;;;;;5125215;28;20299;-53
2022/03/29 08:20:36;;;;;;;18.73;11.32;;;27.10;75.60;;;;;;5125081;28;20086;-53
2022/03/29 08:23:03;;;;;;;21.30;11.65;;;27.10;75.30;;;;;;5125200;28;20323;-51
2022/03/29 08:25:32;;;;;;;22.38;10.95;;;27.10;75.60;;;;;;5124852;28;20082;-56
2022/03/29 08:28:00;;;;;;;22.60;11.38;;;27.10;75.30;;;;;;5125118;28;20034;-52
2022/03/29 08:30:29;;;;;;;19.65;11.70;;;27.10;75.40;;;;;;5124677;28;20026;-53
2022/03/29 08:32:57;;;;;;;19.70;12.00;;;27.10;75.80;;;;;;5124971;28;20292;-56
2022/03/29 08:35:24;;;;;;;23.35;12.07;;;27.10;76.00;;;;;;5124928;28;20028;-51
2022/03/29 08:37:51;;;;;;;24.90;12.10;;;27.10;75.70;;;;;;5124872;28;20032;-56
2022/03/29 08:40:26;;;;;;;24.40;11.45;;;27.00;75.60;;;;;;5124746;28;20322;-53
2022/03/29 08:42:55;;;;;;;20.88;11.15;;;27.00;75.80;;;;;;5124874;28;20028;-57
2022/03/29 08:45:27;;;;;;;23.15;11.50;;;27.00;76.30;;;;;;5124065;28;20330;-55
2022/03/29 08:47:56;;;;;;;27.40;12.15;;;27.00;76.00;;;;;;5124442;28;20287;-55
2022/03/29 08:50:25;;;;;;;37.90;12.32;;;27.00;76.30;;;;;;5124406;28;20027;-54
2022/03/29 08:52:53;;;;;;;38.92;13.00;;;27.00;77.00;;;;;;5124826;28;20028;-54
2022/03/29 08:55:22;;;;;;;38.20;12.07;;;26.90;77.20;;;;;;5124377;28;20353;-52
2022/03/29 08:57:54;;;;;;;26.23;11.18;;;26.90;77.00;;;;;;5124716;28;20035;-51
2022/03/29 09:00:23;;;;;;;22.80;9.93;;;26.90;77.00;;;;;;5124214;28;20011;-51
2022/03/29 09:02:50;;;;;;;24.55;9.95;;;26.90;76.90;;;;;;5124626;28;20063;-51
2022/03/29 09:05:21;;;;;;;19.17;9.32;;;26.90;77.10;;;;;;5124326;28;20023;-55
2022/03/29 09:07:58;;;;;;;21.95;9.73;;;26.90;77.50;;;;;;5124639;28;20069;-52
2022/03/29 09:10:39;;;;;;;20.08;9.07;;;26.90;77.90;;;;;;5124297;28;20177;-51
2022/03/29 09:13:20;;;;;;;13.45;9.13;;;26.80;78.20;;;;;;5124513;28;20031;-52
2022/03/29 09:15:48;;;;;;;17.90;9.38;;;26.80;78.30;;;;;;5124298;28;20012;-54
2022/03/29 09:18:16;;;;;;;16.42;8.98;;;26.80;79.10;;;;;;5124428;28;20274;-52
2022/03/29 09:20:44;;;;;;;18.17;9.52;;;26.80;79.30;;;;;;5124163;28;20084;-53
2022/03/29 09:23:17;;;;;;;15.13;8.52;;;26.70;79.00;;;;;;5124538;28;20027;-54
2022/03/29 09:25:50;;;;;;;14.32;9.02;;;26.70;78.90;;;;;;5123934;28;20020;-55
2022/03/29 09:28:21;;;;;;;23.40;9.40;;;26.70;79.20;;;;;;5124488;28;20194;-52
2022/03/29 09:30:53;;;;;;;15.77;9.52;;;26.70;79.60;;;;;;5124028;28;20035;-52
2022/03/29 09:33:31;;;;;;;19.35;10.30;;;26.70;80.00;;;;;;5124676;28;20054;-50
2022/03/29 09:36:12;;;;;;;20.83;9.77;;;26.70;80.60;;;;;;5124019;28;20031;-53
2022/03/29 09:38:41;;;;;;;17.85;10.15;;;26.70;80.90;;;;;;5123861;28;20033;-51
2022/03/29 09:41:28;;;;;;;19.35;10.05;;;26.70;81.40;;;;;;5124012;28;20019;-51
2022/03/29 09:44:06;;;;;;;16.60;9.88;;;26.70;81.40;;;;;;5124096;28;20027;-49
2022/03/29 09:47:07;;;;;;;18.15;9.88;;;26.70;81.70;;;;;;5123808;28;21941;-49
2022/03/29 09:49:53;;;;;;;15.90;9.18;;;26.70;82.20;;;;;;5123911;28;20035;-51
2022/03/29 09:52:23;;;;;;;23.63;10.73;;;26.60;82.40;;;;;;5124027;28;20047;-55
2022/03/29 09:55:21;;;;;;;18.95;10.80;;;26.70;83.10;;;;;;5123920;28;20030;-51
2022/03/29 09:57:52;;;;;;;20.35;11.82;;;26.60;83.70;;;;;;5125089;28;20019;-51
2022/03/29 10:00:25;;;;;;;21.90;11.55;;;26.70;83.80;;;;;;5127477;28;20015;-54
2022/03/29 10:02:52;;;;;;;19.92;10.77;;;26.60;84.20;;;;;;5128035;28;20087;-52
2022/03/29 10:05:20;;;;;;;19.75;11.23;;;26.70;84.50;;;;;;5127407;28;20016;-53
2022/03/29 10:09:25;;;;;;;21.33;10.63;;;26.60;84.70;;;;;;5127622;28;20024;-52
2022/03/29 10:10:46;;;;;;;20.25;11.50;;;26.60;84.60;;;;;;5127310;28;20072;-53
2022/03/29 10:13:14;;;;;;;20.10;11.05;;;26.60;84.90;;;;;;5127747;28;20024;-53
2022/03/29 10:15:42;;;;;;;18.60;11.10;;;26.60;84.90;;;;;;5127269;28;20068;-55
2022/03/29 10:18:09;;;;;;;21.00;11.50;;;26.60;85.20;;;;;;5127785;28;20028;-56
2022/03/29 10:20:36;;;;;;;19.20;11.70;;;26.60;85.40;;;;;;5127520;28;20054;-52
2022/03/29 10:23:05;;;;;;;17.42;11.10;;;26.60;85.60;;;;;;5127468;28;20089;-50
2022/03/29 10:25:32;;;;;;;20.40;11.68;;;26.60;85.70;;;;;;5127039;28;20061;-55
2022/03/29 10:28:01;;;;;;;20.73;11.98;;;26.60;85.70;;;;;;5127302;28;20087;-58
2022/03/29 10:30:41;;;;;;;24.00;11.98;;;26.60;86.30;;;;;;5126923;28;20054;-51
2022/03/29 10:33:27;;;;;;;22.42;12.20;;;26.60;86.10;;;;;;5127195;28;20020;-53
2022/03/29 10:35:59;;;;;;;20.52;12.05;;;26.60;86.20;;;;;;5126978;28;20027;-52
2022/03/29 10:41:29;;;;;;;30.45;13.05;;;26.50;86.70;;;;;;5126767;28;19904;-50
2022/03/29 10:44:10;;;;;;;21.13;11.68;;;26.50;86.60;;;;;;5126865;28;20083;-49
2022/03/29 10:46:51;;;;;;;24.15;12.38;;;26.60;86.60;;;;;;5126548;28;20024;-55
2022/03/29 10:49:32;;;;;;;28.73;12.98;;;26.60;86.90;;;;;;5126429;28;20047;-52
2022/03/29 10:52:04;;;;;;;27.23;13.52;;;26.60;86.80;;;;;;5126508;28;20039;-55
2022/03/29 10:54:30;;;;;;;;;;;26.60;86.90;;;;;;5127123;28;20034;-55
2022/03/29 10:57:01;;;;;;;29.67;12.77;;;26.60;86.90;;;;;;5126568;28;20077;-52
2022/03/29 10:59:29;;;;;;;28.15;12.88;;;26.60;86.80;;;;;;5126487;28;20072;-54
2022/03/29 11:02:13;;;;;;;30.67;13.48;;;26.60;86.80;;;;;;5126431;28;20281;-46
2022/03/29 11:05:01;;;;;;;24.90;13.52;;;26.60;87.10;;;;;;5126161;28;20015;-48
2022/03/29 11:07:29;;;;;;;27.83;13.05;;;26.50;87.80;;;;;;5126090;28;20031;-48
2022/03/29 11:10:09;;;;;;;26.10;13.18;;;26.50;87.90;;;;;;5125744;28;20022;-48
2022/03/29 11:12:38;;;;;;;23.73;13.05;;;26.50;87.70;;;;;;5126329;28;20034;-48
2022/03/29 11:15:25;;;;;;;25.10;14.48;;;26.50;87.60;;;;;;5125932;28;20020;-44
2022/03/29 11:17:53;;;;;;;24.73;14.82;;;26.60;87.70;;;;;;5112876;28;20040;-49
2022/03/29 11:20:53;;;;;;;24.88;14.88;;;26.60;87.70;;;;;;5125824;28;20042;-56
2022/03/29 11:23:31;;;;;;;23.40;14.23;;;26.60;87.80;;;;;;5080208;28;20196;-50
2022/03/29 11:26:13;;;;;;;29.67;14.10;;;26.60;87.70;;;;;;5124505;28;20019;-48
2022/03/29 11:28:51;;;;;;;52.17;17.80;;;26.60;87.50;;;;;;5124913;28;20395;-51
2022/03/29 11:31:19;;;;;;;88.05;22.02;;;26.60;87.40;;;;;;5125796;28;20051;-48
2022/03/29 11:33:49;;;;;;;126.75;26.67;;;26.70;87.30;;;;;;5125708;28;20015;-50
2022/03/29 11:36:20;;;;;;;130.25;25.48;;;26.70;87.00;;;;;;5125401;28;20028;-50
2022/03/29 11:38:47;;;;;;;137.18;25.42;;;26.70;86.80;;;;;;5125504;28;20068;-46
2022/03/29 11:41:29;;;;;;;131.57;23.15;;;26.80;86.60;;;;;;5125435;28;20019;-49
2022/03/29 11:44:00;;;;;;;;;;;26.80;86.30;;;;;;5125893;28;20051;-57
2022/03/29 11:46:43;;;;;;;121.07;21.67;;;26.80;86.00;;;;;;5125682;28;20117;-48
2022/03/29 11:49:10;;;;;;;105.00;20.33;;;26.80;86.00;;;;;;5125315;28;20047;-48
2022/03/29 11:51:36;;;;;;;90.20;19.33;;;26.90;86.10;;;;;;5125381;28;20023;-52
2022/03/29 11:54:03;;;;;;;91.35;18.08;;;26.90;86.20;;;;;;5125184;28;20015;-50
2022/03/29 11:56:37;;;;;;;87.47;18.15;;;26.90;86.10;;;;;;5125420;28;20030;-51
2022/03/29 11:59:06;;;;;;;69.75;16.92;;;27.00;85.80;;;;;;5125199;28;20016;-54
2022/03/29 12:01:34;;;;;;;55.42;14.50;;;27.00;85.60;;;;;;5125068;28;20150;-59
2022/03/29 12:04:07;;;;;;;53.58;14.90;;;27.10;85.50;;;;;;5125220;28;20027;-49
2022/03/29 12:06:47;;;;;;;46.90;14.48;;;27.10;85.40;;;;;;5125035;28;20304;-50
2022/03/29 12:09:24;;;;;;;43.58;13.57;;;27.10;85.30;;;;;;5125124;28;20028;-47
2022/03/29 12:11:55;;;;;;;37.17;12.90;;;27.20;85.30;;;;;;5125016;28;20073;-50
2022/03/29 12:14:23;;;;;;;26.58;12.15;;;27.20;85.10;;;;;;5124977;28;20019;-47
2022/03/29 12:16:54;;;;;;;34.25;12.70;;;27.20;85.00;;;;;;5125042;28;20047;-49
2022/03/29 12:19:26;;;;;;;33.30;12.10;;;27.20;85.00;;;;;;5124708;28;20077;-48
2022/03/29 12:22:13;;;;;;;;;;;27.30;84.70;;;;;;5124919;28;20027;-50
2022/03/29 12:24:43;;;;;;;41.10;14.73;;;27.30;84.50;;;;;;5124354;28;19900;-47
2022/03/29 12:27:14;;;;;;;50.97;13.63;;;27.30;84.50;;;;;;5124952;28;20019;-47
2022/03/29 12:30:07;;;;;;;49.10;13.07;;;27.30;84.40;;;;;;5124797;28;20054;-49
2022/03/29 12:32:41;;;;;;;45.33;13.00;;;27.30;84.50;;;;;;5121840;28;20037;-48
2022/03/29 12:35:18;;;;;;;48.53;14.05;;;27.30;84.70;;;;;;5124566;28;20022;-53
2022/03/29 12:37:48;;;;;;;63.17;14.45;;;27.30;84.70;;;;;;5106581;28;20047;-48
2022/03/29 12:40:15;;;;;;;62.10;14.10;;;27.30;84.80;;;;;;5124525;28;20015;-51
2022/03/29 12:42:42;;;;;;;61.15;14.68;;;27.30;84.70;;;;;;5124876;28;20024;-54
2022/03/29 12:45:09;;;;;;;59.88;14.88;;;27.30;84.80;;;;;;5124555;28;20026;-52
2022/03/29 12:47:38;;;;;;;57.67;14.70;;;27.30;84.80;;;;;;5124469;28;20039;-49
2022/03/29 12:50:05;;;;;;;71.63;15.18;;;27.30;84.90;;;;;;5124464;28;20068;-50